createdAt,value
2018-01-06T08:43:00.436Z,12.30
2018-01-06T08:45:28.018Z,82.07
2018-01-06T08:47:55.615Z,10.40
2018-01-06T08:50:23.170Z,5.90
2018-01-06T08:52:50.805Z,7.50
2018-01-06T08:55:18.434Z,5.30
2018-01-06T08:57:45.989Z,7.07
2018-01-06T09:00:14.438Z,6.00
2018-01-06T09:02:41.984Z,11.60
2018-01-06T09:05:09.523Z,3.50
2018-01-06T09:07:37.154Z,5.93
2018-01-06T09:10:04.724Z,3.60
2018-01-06T09:12:32.338Z,4.77
2018-01-06T09:14:59.938Z,5.53
2018-01-06T09:17:27.562Z,5.60
2018-01-06T09:19:55.196Z,4.83
2018-01-06T09:22:22.759Z,2.73
2018-01-06T09:24:50.433Z,2.60
2018-01-06T09:27:18.063Z,8.20
2018-01-06T09:29:45.622Z,4.30
2018-01-06T09:32:13.259Z,3.10
2018-01-06T09:34:40.821Z,5.00
2018-01-06T09:37:08.522Z,3.23
2018-01-06T09:39:36.115Z,5.90
2018-01-06T09:42:03.678Z,5.73
2018-01-06T09:44:31.251Z,3.47
2018-01-06T09:46:58.872Z,3.43
2018-01-06T09:49:26.486Z,2.27
2018-01-06T09:51:54.112Z,3.73
2018-01-06T09:54:21.734Z,4.07
2018-01-06T09:56:49.310Z,10.73
2018-01-06T09:59:16.879Z,10.00
2018-01-06T10:01:44.556Z,8.20
2018-01-06T10:04:12.121Z,3.03
2018-01-06T10:06:39.736Z,5.77
2018-01-06T10:09:07.316Z,8.30
2018-01-06T10:11:34.882Z,4.30
2018-01-06T10:14:02.609Z,9.30
2018-01-06T10:16:30.205Z,5.03
2018-01-06T10:18:57.773Z,7.30
2018-01-06T10:21:25.347Z,6.30
2018-01-06T10:23:52.976Z,5.10
2018-01-06T10:26:20.593Z,7.30
2018-01-06T10:28:48.221Z,6.17
2018-01-06T10:31:15.840Z,7.70
2018-01-06T10:33:43.419Z,8.00
2018-01-06T10:36:10.995Z,4.77
2018-01-06T10:38:38.676Z,8.00
2018-01-06T10:41:06.244Z,4.87
2018-01-06T10:43:33.848Z,5.20
2018-01-06T10:46:01.416Z,5.90
2018-01-06T10:48:28.982Z,7.47
2018-01-06T10:50:56.626Z,4.83
2018-01-06T10:53:24.242Z,5.07
2018-01-06T10:55:51.805Z,6.33
2018-01-06T10:58:19.431Z,8.43
2018-01-06T11:00:52.686Z,12.97
2018-01-06T11:03:20.307Z,7.80
2018-01-06T11:05:47.874Z,5.00
2018-01-06T11:08:15.448Z,5.20
2018-01-06T11:10:43.023Z,7.73
2018-01-06T11:13:10.582Z,3.80
2018-01-06T11:15:38.297Z,5.20
2018-01-06T11:18:05.872Z,9.53
2018-01-06T11:20:33.431Z,8.03
2018-01-06T11:23:01.010Z,14.90
2018-01-06T11:25:28.575Z,6.07
2018-01-06T11:27:56.280Z,5.57
2018-01-06T11:30:23.908Z,7.23
2018-01-06T11:32:51.470Z,6.60
2018-01-06T11:35:19.023Z,5.37
2018-01-06T11:37:46.644Z,5.30
2018-01-06T11:40:14.286Z,4.83
2018-01-06T11:42:41.859Z,4.93
2018-01-06T11:45:09.495Z,12.70
2018-01-06T11:47:37.131Z,3.87
2018-01-06T11:50:04.854Z,21.53
2018-01-06T11:52:32.560Z,11.83
2018-01-06T11:55:00.182Z,25.47
2018-01-06T11:57:27.760Z,11.93
2018-01-06T11:59:55.340Z,9.83
2018-01-06T12:02:22.967Z,14.83
2018-01-06T12:04:50.586Z,7.60
2018-01-06T12:07:18.149Z,16.90
2018-01-06T12:09:45.710Z,13.67
2018-01-06T12:12:13.347Z,25.00
2018-01-06T12:14:40.924Z,11.90
2018-01-06T12:17:08.560Z,20.53
2018-01-06T12:19:36.184Z,32.27
2018-01-06T12:22:03.751Z,7.67
2018-01-06T12:24:31.328Z,25.10
2018-01-06T12:26:58.879Z,30.77
2018-01-06T12:29:26.595Z,20.63
2018-01-06T12:31:54.162Z,12.37
2018-01-06T12:34:21.726Z,8.57
2018-01-06T12:36:49.358Z,14.40
2018-01-06T12:39:16.938Z,33.07
2018-01-06T12:41:44.559Z,13.43
2018-01-06T12:44:12.135Z,7.03
2018-01-06T12:46:39.759Z,5.50
2018-01-06T12:49:07.339Z,23.63
2018-01-06T12:51:34.948Z,4.93
2018-01-06T12:54:02.571Z,10.47
2018-01-06T12:56:30.186Z,4.33
2018-01-06T12:58:57.757Z,9.30
2018-01-06T13:01:25.396Z,7.80
2018-01-06T13:03:53.022Z,14.20
2018-01-06T13:06:20.668Z,23.83
2018-01-06T13:08:48.332Z,13.80
2018-01-06T13:11:15.909Z,23.13
2018-01-06T13:13:43.482Z,7.13
2018-01-06T13:16:11.052Z,19.20
2018-01-06T13:18:38.676Z,14.03
2018-01-06T13:21:06.286Z,7.93
2018-01-06T13:23:33.914Z,15.03
2018-01-06T13:26:01.540Z,12.60
2018-01-06T13:28:29.103Z,26.57
2018-01-06T13:30:56.729Z,33.43
2018-01-06T13:33:24.362Z,12.67
2018-01-06T13:35:51.946Z,87.30
2018-01-06T13:38:19.513Z,19.87
2018-01-06T13:40:47.124Z,64.20
2018-01-06T13:43:14.781Z,34.47
2018-01-06T13:45:42.331Z,78.20
2018-01-06T13:48:09.898Z,43.03
2018-01-06T13:50:37.476Z,78.10
2018-01-06T13:53:05.052Z,90.97
2018-01-06T13:55:32.706Z,37.80
2018-01-06T13:58:00.282Z,34.83
2018-01-06T14:00:27.918Z,40.47
2018-01-06T14:02:55.539Z,72.93
2018-01-06T14:05:23.144Z,36.20
2018-01-06T14:07:50.762Z,32.43
2018-01-06T14:10:18.332Z,33.13
2018-01-06T14:12:46.012Z,29.67
2018-01-06T14:15:13.599Z,42.77
2018-01-06T14:17:41.275Z,39.97
2018-01-06T14:20:08.930Z,48.33
2018-01-06T14:22:36.503Z,76.73
2018-01-06T14:25:04.080Z,92.37
2018-01-06T14:27:31.664Z,98.27
2018-01-06T14:29:59.243Z,103.90
2018-01-06T14:32:26.894Z,105.80
2018-01-06T14:34:54.466Z,112.40
2018-01-06T14:37:22.035Z,68.67
2018-01-06T14:39:49.678Z,76.73
2018-01-06T14:42:17.248Z,69.27
2018-01-06T14:44:44.983Z,67.60
2018-01-06T14:47:12.666Z,91.33
2018-01-06T14:49:40.234Z,101.77
2018-01-06T14:52:07.861Z,113.47
2018-01-06T14:54:35.432Z,124.33
2018-01-06T14:57:03.152Z,114.73
2018-01-06T14:59:30.787Z,128.13
2018-01-06T15:01:58.361Z,128.27
2018-01-06T15:04:25.969Z,125.50
2018-01-06T15:06:53.553Z,130.10
2018-01-06T15:09:21.260Z,148.53
2018-01-06T15:11:48.891Z,176.83
2018-01-06T15:14:16.537Z,162.60
2018-01-06T15:16:44.123Z,141.80
2018-01-06T15:19:11.708Z,137.03
2018-01-06T15:21:39.391Z,128.23
2018-01-06T15:24:07.052Z,95.17
2018-01-06T15:26:34.630Z,122.03
2018-01-06T15:29:02.856Z,117.77
2018-01-06T15:31:30.433Z,117.33
2018-01-06T15:33:58.049Z,99.43
2018-01-06T15:36:25.622Z,106.27
2018-01-06T15:38:53.246Z,83.33
2018-01-06T15:41:20.819Z,65.77
2018-01-06T15:43:48.385Z,50.70
2018-01-06T15:46:16.006Z,36.90
2018-01-06T15:48:43.575Z,18.97
2018-01-06T15:51:11.192Z,23.23
2018-01-06T15:53:38.835Z,45.27
2018-01-06T15:56:06.466Z,21.33
2018-01-06T15:58:34.086Z,33.53
2018-01-06T16:01:01.658Z,42.73
2018-01-06T16:03:29.227Z,51.37
2018-01-06T16:05:56.806Z,42.27
2018-01-06T16:08:24.378Z,51.60
2018-01-06T16:10:52.002Z,49.60
2018-01-06T16:13:19.578Z,31.30
2018-01-06T16:15:47.151Z,30.20
2018-01-06T16:18:14.725Z,48.03
2018-01-06T16:20:42.314Z,66.33
2018-01-06T16:23:09.939Z,41.37
2018-01-06T16:25:37.511Z,34.50
2018-01-06T16:28:05.140Z,27.10
2018-01-06T16:30:32.775Z,59.67
2018-01-06T16:33:00.355Z,65.37
2018-01-06T16:35:27.982Z,76.23
2018-01-06T16:37:55.562Z,102.47
2018-01-06T16:40:23.199Z,112.03
2018-01-06T16:42:50.782Z,142.57
2018-01-06T16:45:18.419Z,144.77
2018-01-06T16:47:46.041Z,154.43
2018-01-06T16:50:13.610Z,116.23
2018-01-06T16:52:41.198Z,108.07
2018-01-06T16:55:08.783Z,27.10
2018-01-06T16:57:36.361Z,83.00
2018-01-06T17:00:03.992Z,65.67
2018-01-06T17:02:31.538Z,21.23
2018-01-06T17:04:59.114Z,50.00
2018-01-06T17:07:26.701Z,42.80
2018-01-06T17:09:54.343Z,26.37
2018-01-06T17:12:21.985Z,17.60
2018-01-06T17:14:49.614Z,18.30
2018-01-06T17:17:17.234Z,17.00
2018-01-06T17:19:44.887Z,11.90
2018-01-06T17:22:12.474Z,7.70
2018-01-06T17:24:40.100Z,9.60
2018-01-06T17:27:07.740Z,200.03
2018-01-06T17:29:35.298Z,7.00
2018-01-06T17:32:02.871Z,5.27
2018-01-06T17:34:30.516Z,12.03
2018-01-06T17:36:58.166Z,5.50
2018-01-06T17:39:25.800Z,5.20
2018-01-06T17:41:53.427Z,4.23
2018-01-06T17:44:21.012Z,6.57
2018-01-06T17:46:48.576Z,6.43
2018-01-06T17:49:16.197Z,6.23
2018-01-06T17:51:43.761Z,4.60
2018-01-06T17:54:11.392Z,19.77
2018-01-06T17:56:39.007Z,6.80
2018-01-06T17:59:06.551Z,20.63
2018-01-06T18:01:34.167Z,16.03
2018-01-06T18:04:01.801Z,23.30
2018-01-06T18:06:29.371Z,12.53
2018-01-06T18:08:56.952Z,7.63
2018-01-06T18:11:24.540Z,21.93
2018-01-06T18:13:52.219Z,31.20
2018-01-06T18:16:19.787Z,12.13
2018-01-06T18:18:47.411Z,5.40
2018-01-06T18:21:15.043Z,8.13
2018-01-06T18:23:42.584Z,4.93
2018-01-06T18:26:10.208Z,5.37
2018-01-06T18:28:37.770Z,4.90
2018-01-06T18:31:05.341Z,3.23
2018-01-06T18:33:32.897Z,4.57
2018-01-06T18:36:00.458Z,8.37
2018-01-06T18:38:28.110Z,7.93
2018-01-06T18:40:55.743Z,4.23
2018-01-06T18:43:23.302Z,6.83
2018-01-06T18:45:50.911Z,35.87
2018-01-06T18:48:18.542Z,41.93
2018-01-06T18:50:46.170Z,20.90
2018-01-06T18:53:13.739Z,43.63
2018-01-06T18:55:41.302Z,55.80
2018-01-06T18:58:08.854Z,45.37
2018-01-06T19:00:36.399Z,14.33
2018-01-06T19:03:04.028Z,58.97
2018-01-06T19:05:31.659Z,66.80
2018-01-06T19:07:59.235Z,47.13
2018-01-06T19:10:26.829Z,79.87
2018-01-06T19:12:54.398Z,80.00
2018-01-06T19:15:22.014Z,67.03
2018-01-06T19:17:49.588Z,61.27
2018-01-06T19:20:17.159Z,66.93
2018-01-06T19:22:44.735Z,52.57
2018-01-06T19:25:12.299Z,64.60
2018-01-06T19:27:39.945Z,62.60
2018-01-06T19:30:07.518Z,76.17
2018-01-06T19:32:35.078Z,93.57
2018-01-06T19:35:02.686Z,86.50
2018-01-06T19:37:30.255Z,85.20
2018-01-06T19:39:57.912Z,96.80
2018-01-06T19:42:25.482Z,149.87
2018-01-06T19:44:53.060Z,140.07
2018-01-06T19:47:20.635Z,147.77
2018-01-06T19:49:48.205Z,124.03
2018-01-06T19:52:15.896Z,126.47
2018-01-06T19:54:43.467Z,127.07
2018-01-06T19:57:11.018Z,152.30
2018-01-06T19:59:38.654Z,141.10
2018-01-06T20:02:06.222Z,140.80
2018-01-06T20:04:33.848Z,127.43
2018-01-06T20:07:01.422Z,116.13
2018-01-06T20:09:29.052Z,138.33
2018-01-06T20:11:56.634Z,114.03
2018-01-06T20:14:24.219Z,99.80
2018-01-06T20:16:51.842Z,91.63
2018-01-06T20:19:19.433Z,80.27
2018-01-06T20:21:47.006Z,55.50
2018-01-06T20:24:14.578Z,42.40
2018-01-06T20:26:42.138Z,33.87
2018-01-06T20:29:09.814Z,48.67
2018-01-06T20:31:37.440Z,45.67
2018-01-06T20:34:05.078Z,42.87
2018-01-06T20:36:32.715Z,62.77
2018-01-06T20:39:00.344Z,37.43
2018-01-06T20:41:27.948Z,49.90
2018-01-06T20:43:55.510Z,51.97
2018-01-06T20:46:23.095Z,82.97
2018-01-06T20:48:50.667Z,48.50
2018-01-06T20:51:18.244Z,44.70
2018-01-06T20:53:45.917Z,52.50
2018-01-06T20:56:13.455Z,42.57
2018-01-06T20:58:41.026Z,41.30
2018-01-06T21:01:08.601Z,44.47
2018-01-06T21:03:36.223Z,39.00
2018-01-06T21:06:03.834Z,46.67
2018-01-06T21:08:31.468Z,43.47
2018-01-06T21:10:59.039Z,51.93
2018-01-06T21:13:26.619Z,46.77
2018-01-06T21:15:54.194Z,64.80
2018-01-06T21:18:21.825Z,60.83
2018-01-06T21:20:49.428Z,86.03
2018-01-06T21:23:17.076Z,96.93
2018-01-06T21:25:44.658Z,111.57
2018-01-06T21:28:12.236Z,99.87
2018-01-06T21:30:39.951Z,103.17
2018-01-06T21:33:07.530Z,117.23
2018-01-06T21:35:35.158Z,124.67
2018-01-06T21:38:02.796Z,127.57
2018-01-06T21:40:30.363Z,123.27
2018-01-06T21:42:57.991Z,125.50
2018-01-06T21:45:25.655Z,133.00
2018-01-06T21:47:53.296Z,117.50
2018-01-06T21:50:20.874Z,125.40
2018-01-06T21:52:48.442Z,119.50
2018-01-06T21:55:16.071Z,124.50
2018-01-06T21:57:43.659Z,116.77
2018-01-06T22:00:11.311Z,113.47
2018-01-06T22:02:38.897Z,133.00
2018-01-06T22:05:06.471Z,131.83
2018-01-06T22:07:34.174Z,127.53
2018-01-06T22:10:01.738Z,130.50
2018-01-06T22:12:29.377Z,135.90
2018-01-06T22:14:57.019Z,120.57
2018-01-06T22:17:24.588Z,115.20
2018-01-06T22:19:52.219Z,111.37
2018-01-06T22:22:19.849Z,100.03
2018-01-06T22:24:47.419Z,101.37
2018-01-06T22:27:15.051Z,86.73
2018-01-06T22:29:42.622Z,79.30
2018-01-06T22:32:10.364Z,97.13
2018-01-06T22:34:37.934Z,83.70
2018-01-06T22:37:05.554Z,87.37
2018-01-06T22:39:33.186Z,94.30
2018-01-06T22:42:00.811Z,85.67
2018-01-06T22:44:28.415Z,75.93
2018-01-06T22:46:55.979Z,65.20
2018-01-06T22:49:23.544Z,67.17
2018-01-06T22:51:51.113Z,56.87
2018-01-06T22:54:18.679Z,71.50
2018-01-06T22:56:46.365Z,51.17
2018-01-06T22:59:13.957Z,66.80
2018-01-06T23:01:41.532Z,60.23
2018-01-06T23:04:09.107Z,59.10
2018-01-06T23:06:36.671Z,53.40
2018-01-06T23:09:04.382Z,45.70
2018-01-06T23:11:31.992Z,51.43
2018-01-06T23:13:59.552Z,56.57
2018-01-06T23:16:27.117Z,60.70
2018-01-06T23:18:54.679Z,80.93
2018-01-06T23:21:22.294Z,61.50
2018-01-06T23:23:49.864Z,58.07
2018-01-06T23:26:17.407Z,47.33
2018-01-06T23:28:45.038Z,45.53
2018-01-06T23:31:12.665Z,51.67
2018-01-06T23:33:40.283Z,50.33
2018-01-06T23:36:07.827Z,44.50
2018-01-06T23:38:35.402Z,47.70
2018-01-06T23:41:03.038Z,56.63
2018-01-06T23:43:30.714Z,43.43
2018-01-06T23:45:58.418Z,52.90
2018-01-06T23:48:26.040Z,48.77
2018-01-06T23:50:53.661Z,54.30
2018-01-06T23:53:21.242Z,61.93
2018-01-06T23:55:48.807Z,81.33
2018-01-06T23:58:16.436Z,55.40
